Springfield Beckley Municipal Airport Springfield US
ICAO: KSGH
IATA: SGH
Category: Medium
Scheduled Services: No

Elevation: 1051 ft
TransAlt. 18000 ft.

Airport Communications:
DAYTON APP/DEP:118.85
AWSS:134.975
ATIS:25.787
CTAF:120.7
GND:121.7
178 FW OPS:141.7
TWR:120.7
UNICOM:122.95

KSGH Zoom In..

If you have problems with the map follow the link
https://www.worldairports.se/pages/airport.php?
ICAO=KSGH

Runways:

(A) RW 06 length 9009 ft width 150 ft
---- / hdg 58

(B) RW 15 length 5499 ft width 100 ft
---- / hdg 148

(C) RW 24 length 9009 ft width 150 ft
ILS 111.30 / hdg 238

(D) RW 33 length 5499 ft width 100 ft
---- / hdg 328

Location; KSGH
Day. 26 / Time. 23.56 Zulu
* Altimeter: 29.91
* Temperature: 6/° c. 42.8°f.
* Wind from: 260° Speed 03 kn.
Dewpoint: //° c.
Visibility: 10 Statute Miles.
Clouds: Few 1700 ft.
Clouds: Overcast 3200 ft.

KSGH 262356Z AUTO 26003KT 10SM FEW017 OVC032 01/01 A2991 RMK AO2 SLP140 6//// T00060006 10011 20000 51002 PNO $


Wind From 260°
Speed 03 kn.

 
 
jpsmedia worldairports.se 2020   terms of use